sensor_id;sensor_type;location;lat;lon;timestamp;P1;durP1;ratioP1;P2;durP2;ratioP2
53654;SDS011;39558;52.028;8.536;2023-06-14T00:01:02;1.33;;;0.70;;
53654;SDS011;39558;52.028;8.536;2023-06-14T00:03:31;1.55;;;0.68;;
53654;SDS011;39558;52.028;8.536;2023-06-14T00:05:56;1.60;;;0.77;;
53654;SDS011;39558;52.028;8.536;2023-06-14T00:08:22;1.33;;;0.70;;
53654;SDS011;39558;52.028;8.536;2023-06-14T00:10:50;1.23;;;0.60;;
53654;SDS011;39558;52.028;8.536;2023-06-14T00:13:16;1.63;;;0.60;;
53654;SDS011;39558;52.028;8.536;2023-06-14T00:15:42;1.23;;;0.60;;
53654;SDS011;39558;52.028;8.536;2023-06-14T00:18:08;1.33;;;0.60;;
53654;SDS011;39558;52.028;8.536;2023-06-14T00:20:36;1.70;;;0.70;;
53654;SDS011;39558;52.028;8.536;2023-06-14T00:23:02;1.60;;;0.80;;
53654;SDS011;39558;52.028;8.536;2023-06-14T00:25:28;2.13;;;1.10;;
53654;SDS011;39558;52.028;8.536;2023-06-14T00:27:54;2.05;;;0.90;;
53654;SDS011;39558;52.028;8.536;2023-06-14T00:30:21;1.92;;;0.80;;
53654;SDS011;39558;52.028;8.536;2023-06-14T00:32:47;3.17;;;0.60;;
53654;SDS011;39558;52.028;8.536;2023-06-14T00:35:13;1.25;;;0.57;;
53654;SDS011;39558;52.028;8.536;2023-06-14T00:37:39;1.50;;;0.60;;
53654;SDS011;39558;52.028;8.536;2023-06-14T00:40:05;1.10;;;0.85;;
53654;SDS011;39558;52.028;8.536;2023-06-14T00:42:31;2.03;;;0.50;;
53654;SDS011;39558;52.028;8.536;2023-06-14T00:44:57;1.63;;;0.63;;
53654;SDS011;39558;52.028;8.536;2023-06-14T00:47:23;1.88;;;0.82;;
53654;SDS011;39558;52.028;8.536;2023-06-14T00:49:50;0.93;;;0.40;;
53654;SDS011;39558;52.028;8.536;2023-06-14T00:52:16;2.63;;;0.73;;
53654;SDS011;39558;52.028;8.536;2023-06-14T00:54:42;1.65;;;0.73;;
53654;SDS011;39558;52.028;8.536;2023-06-14T00:57:09;1.48;;;0.52;;
53654;SDS011;39558;52.028;8.536;2023-06-14T00:59:36;1.65;;;0.82;;
53654;SDS011;39558;52.028;8.536;2023-06-14T01:02:04;0.88;;;0.45;;
53654;SDS011;39558;52.028;8.536;2023-06-14T01:04:30;1.88;;;0.60;;
53654;SDS011;39558;52.028;8.536;2023-06-14T01:07:05;1.20;;;0.60;;
53654;SDS011;39558;52.028;8.536;2023-06-14T01:09:53;1.27;;;0.70;;
53654;SDS011;39558;52.028;8.536;2023-06-14T01:12:28;0.80;;;0.60;;
53654;SDS011;39558;52.028;8.536;2023-06-14T01:14:56;1.88;;;0.80;;
53654;SDS011;39558;52.028;8.536;2023-06-14T01:17:22;1.98;;;0.63;;
53654;SDS011;39558;52.028;8.536;2023-06-14T01:19:48;2.15;;;0.80;;
53654;SDS011;39558;52.028;8.536;2023-06-14T01:22:22;3.47;;;0.82;;
53654;SDS011;39558;52.028;8.536;2023-06-14T01:24:49;1.88;;;0.80;;
53654;SDS011;39558;52.028;8.536;2023-06-14T01:27:15;1.60;;;0.80;;
53654;SDS011;39558;52.028;8.536;2023-06-14T01:29:41;1.55;;;0.80;;
53654;SDS011;39558;52.028;8.536;2023-06-14T01:32:10;0.95;;;0.50;;
53654;SDS011;39558;52.028;8.536;2023-06-14T01:34:36;2.08;;;0.88;;
53654;SDS011;39558;52.028;8.536;2023-06-14T01:37:02;1.40;;;0.40;;
53654;SDS011;39558;52.028;8.536;2023-06-14T01:39:28;2.60;;;1.40;;
53654;SDS011;39558;52.028;8.536;2023-06-14T01:41:55;1.15;;;0.57;;
53654;SDS011;39558;52.028;8.536;2023-06-14T01:44:23;1.10;;;0.70;;
53654;SDS011;39558;52.028;8.536;2023-06-14T01:46:49;1.58;;;0.75;;
53654;SDS011;39558;52.028;8.536;2023-06-14T01:49:15;1.48;;;0.60;;
53654;SDS011;39558;52.028;8.536;2023-06-14T01:51:41;3.45;;;0.60;;
53654;SDS011;39558;52.028;8.536;2023-06-14T01:54:06;2.03;;;0.60;;
53654;SDS011;39558;52.028;8.536;2023-06-14T01:56:32;1.33;;;0.60;;
53654;SDS011;39558;52.028;8.536;2023-06-14T01:58:58;1.88;;;1.00;;
53654;SDS011;39558;52.028;8.536;2023-06-14T02:01:24;2.78;;;0.80;;
53654;SDS011;39558;52.028;8.536;2023-06-14T02:03:51;2.22;;;1.00;;
53654;SDS011;39558;52.028;8.536;2023-06-14T02:06:18;1.45;;;0.80;;
53654;SDS011;39558;52.028;8.536;2023-06-14T02:08:44;2.50;;;1.38;;
53654;SDS011;39558;52.028;8.536;2023-06-14T02:11:10;2.17;;;1.00;;
53654;SDS011;39558;52.028;8.536;2023-06-14T02:13:36;1.20;;;0.52;;
53654;SDS011;39558;52.028;8.536;2023-06-14T02:16:02;1.75;;;0.85;;
53654;SDS011;39558;52.028;8.536;2023-06-14T02:18:28;0.98;;;0.52;;
53654;SDS011;39558;52.028;8.536;2023-06-14T02:20:54;1.40;;;0.60;;
53654;SDS011;39558;52.028;8.536;2023-06-14T02:23:20;1.88;;;1.00;;
53654;SDS011;39558;52.028;8.536;2023-06-14T02:25:46;3.00;;;1.23;;
53654;SDS011;39558;52.028;8.536;2023-06-14T02:28:11;2.22;;;0.80;;
53654;SDS011;39558;52.028;8.536;2023-06-14T02:30:37;2.78;;;0.60;;
53654;SDS011;39558;52.028;8.536;2023-06-14T02:33:04;2.67;;;0.90;;
53654;SDS011;39558;52.028;8.536;2023-06-14T02:35:30;2.25;;;0.90;;
53654;SDS011;39558;52.028;8.536;2023-06-14T02:37:56;1.75;;;0.75;;
53654;SDS011;39558;52.028;8.536;2023-06-14T02:40:22;1.15;;;0.70;;
53654;SDS011;39558;52.028;8.536;2023-06-14T02:42:48;1.58;;;0.85;;
53654;SDS011;39558;52.028;8.536;2023-06-14T02:45:14;1.65;;;0.82;;
53654;SDS011;39558;52.028;8.536;2023-06-14T02:47:40;2.67;;;0.90;;
53654;SDS011;39558;52.028;8.536;2023-06-14T02:50:06;2.35;;;0.85;;
53654;SDS011;39558;52.028;8.536;2023-06-14T02:52:33;1.50;;;0.75;;
53654;SDS011;39558;52.028;8.536;2023-06-14T02:54:59;3.30;;;0.90;;
53654;SDS011;39558;52.028;8.536;2023-06-14T02:57:25;2.35;;;1.08;;
53654;SDS011;39558;52.028;8.536;2023-06-14T02:59:50;2.10;;;0.85;;
53654;SDS011;39558;52.028;8.536;2023-06-14T03:02:17;1.90;;;0.90;;
53654;SDS011;39558;52.028;8.536;2023-06-14T03:04:43;1.08;;;0.65;;
53654;SDS011;39558;52.028;8.536;2023-06-14T03:07:09;1.63;;;0.90;;
53654;SDS011;39558;52.028;8.536;2023-06-14T03:09:36;1.75;;;1.00;;
53654;SDS011;39558;52.028;8.536;2023-06-14T03:12:02;1.23;;;0.60;;
53654;SDS011;39558;52.028;8.536;2023-06-14T03:14:28;2.17;;;1.30;;
53654;SDS011;39558;52.028;8.536;2023-06-14T03:16:55;2.53;;;0.80;;
53654;SDS011;39558;52.028;8.536;2023-06-14T03:19:21;1.90;;;0.77;;
53654;SDS011;39558;52.028;8.536;2023-06-14T03:21:47;1.65;;;0.88;;
53654;SDS011;39558;52.028;8.536;2023-06-14T03:24:14;1.40;;;0.70;;
53654;SDS011;39558;52.028;8.536;2023-06-14T03:26:41;0.95;;;0.68;;
53654;SDS011;39558;52.028;8.536;2023-06-14T03:29:07;2.72;;;1.00;;
53654;SDS011;39558;52.028;8.536;2023-06-14T03:31:34;1.38;;;0.73;;
53654;SDS011;39558;52.028;8.536;2023-06-14T03:34:00;1.45;;;0.80;;
53654;SDS011;39558;52.028;8.536;2023-06-14T03:36:26;1.73;;;0.90;;
53654;SDS011;39558;52.028;8.536;2023-06-14T03:38:53;2.75;;;1.10;;
53654;SDS011;39558;52.028;8.536;2023-06-14T03:41:19;1.50;;;0.90;;
53654;SDS011;39558;52.028;8.536;2023-06-14T03:43:45;2.83;;;1.27;;
53654;SDS011;39558;52.028;8.536;2023-06-14T03:46:11;4.55;;;1.02;;
53654;SDS011;39558;52.028;8.536;2023-06-14T03:48:37;1.90;;;0.90;;
53654;SDS011;39558;52.028;8.536;2023-06-14T03:51:03;1.95;;;0.95;;
53654;SDS011;39558;52.028;8.536;2023-06-14T03:53:29;1.30;;;0.70;;
53654;SDS011;39558;52.028;8.536;2023-06-14T03:55:55;2.75;;;0.95;;
53654;SDS011;39558;52.028;8.536;2023-06-14T03:58:22;1.58;;;1.00;;
53654;SDS011;39558;52.028;8.536;2023-06-14T04:00:48;2.08;;;1.00;;
53654;SDS011;39558;52.028;8.536;2023-06-14T04:03:14;1.02;;;0.65;;
53654;SDS011;39558;52.028;8.536;2023-06-14T04:05:40;1.33;;;0.70;;
53654;SDS011;39558;52.028;8.536;2023-06-14T04:08:09;1.77;;;0.90;;
53654;SDS011;39558;52.028;8.536;2023-06-14T04:10:35;4.72;;;0.90;;
53654;SDS011;39558;52.028;8.536;2023-06-14T04:13:01;1.42;;;0.70;;
53654;SDS011;39558;52.028;8.536;2023-06-14T04:15:27;1.58;;;0.68;;
53654;SDS011;39558;52.028;8.536;2023-06-14T04:17:53;1.80;;;0.90;;
53654;SDS011;39558;52.028;8.536;2023-06-14T04:20:22;1.60;;;1.00;;
53654;SDS011;39558;52.028;8.536;2023-06-14T04:22:49;1.75;;;1.00;;
53654;SDS011;39558;52.028;8.536;2023-06-14T04:25:15;3.45;;;1.13;;
53654;SDS011;39558;52.028;8.536;2023-06-14T04:27:41;1.52;;;0.75;;
53654;SDS011;39558;52.028;8.536;2023-06-14T04:30:08;1.40;;;0.85;;
53654;SDS011;39558;52.028;8.536;2023-06-14T04:32:34;3.92;;;1.00;;
53654;SDS011;39558;52.028;8.536;2023-06-14T04:35:03;1.77;;;0.70;;
53654;SDS011;39558;52.028;8.536;2023-06-14T04:37:30;3.72;;;1.02;;
53654;SDS011;39558;52.028;8.536;2023-06-14T04:39:57;1.73;;;0.90;;
53654;SDS011;39558;52.028;8.536;2023-06-14T04:42:24;1.55;;;0.80;;
53654;SDS011;39558;52.028;8.536;2023-06-14T04:44:50;1.80;;;0.90;;
53654;SDS011;39558;52.028;8.536;2023-06-14T04:47:16;1.85;;;1.00;;
53654;SDS011;39558;52.028;8.536;2023-06-14T04:49:43;2.20;;;1.08;;
53654;SDS011;39558;52.028;8.536;2023-06-14T04:52:09;2.05;;;1.13;;
53654;SDS011;39558;52.028;8.536;2023-06-14T04:54:35;1.83;;;0.80;;
53654;SDS011;39558;52.028;8.536;2023-06-14T04:57:06;1.50;;;0.80;;
53654;SDS011;39558;52.028;8.536;2023-06-14T04:59:33;1.35;;;0.80;;
53654;SDS011;39558;52.028;8.536;2023-06-14T05:02:00;2.13;;;0.90;;
53654;SDS011;39558;52.028;8.536;2023-06-14T05:04:26;2.13;;;1.20;;
53654;SDS011;39558;52.028;8.536;2023-06-14T05:06:53;1.77;;;1.02;;
53654;SDS011;39558;52.028;8.536;2023-06-14T05:09:19;3.65;;;1.35;;
53654;SDS011;39558;52.028;8.536;2023-06-14T05:11:46;2.30;;;1.10;;
53654;SDS011;39558;52.028;8.536;2023-06-14T05:14:12;2.58;;;1.00;;
53654;SDS011;39558;52.028;8.536;2023-06-14T05:16:39;2.08;;;1.10;;
53654;SDS011;39558;52.028;8.536;2023-06-14T05:19:05;1.55;;;0.68;;
53654;SDS011;39558;52.028;8.536;2023-06-14T05:21:31;2.20;;;1.20;;
53654;SDS011;39558;52.028;8.536;2023-06-14T05:23:58;1.52;;;0.93;;
53654;SDS011;39558;52.028;8.536;2023-06-14T05:26:24;1.85;;;0.95;;
53654;SDS011;39558;52.028;8.536;2023-06-14T05:28:53;1.92;;;1.08;;
53654;SDS011;39558;52.028;8.536;2023-06-14T05:31:21;2.60;;;1.20;;
53654;SDS011;39558;52.028;8.536;2023-06-14T05:33:47;2.92;;;1.10;;
53654;SDS011;39558;52.028;8.536;2023-06-14T05:36:13;1.75;;;1.08;;
53654;SDS011;39558;52.028;8.536;2023-06-14T05:38:39;2.42;;;1.02;;
53654;SDS011;39558;52.028;8.536;2023-06-14T05:41:05;3.78;;;1.48;;
53654;SDS011;39558;52.028;8.536;2023-06-14T05:43:31;2.08;;;0.98;;
53654;SDS011;39558;52.028;8.536;2023-06-14T05:45:56;2.15;;;1.05;;
53654;SDS011;39558;52.028;8.536;2023-06-14T05:48:22;1.83;;;0.90;;
53654;SDS011;39558;52.028;8.536;2023-06-14T05:50:48;1.65;;;0.82;;
53654;SDS011;39558;52.028;8.536;2023-06-14T05:53:14;1.50;;;0.80;;
53654;SDS011;39558;52.028;8.536;2023-06-14T05:55:40;2.90;;;1.52;;
53654;SDS011;39558;52.028;8.536;2023-06-14T05:58:06;2.15;;;1.00;;
53654;SDS011;39558;52.028;8.536;2023-06-14T06:00:32;2.22;;;1.08;;
53654;SDS011;39558;52.028;8.536;2023-06-14T06:02:58;1.88;;;0.90;;
53654;SDS011;39558;52.028;8.536;2023-06-14T06:05:24;2.08;;;1.00;;
53654;SDS011;39558;52.028;8.536;2023-06-14T06:07:50;2.83;;;1.23;;
53654;SDS011;39558;52.028;8.536;2023-06-14T06:10:16;2.47;;;1.13;;
53654;SDS011;39558;52.028;8.536;2023-06-14T06:12:42;4.05;;;0.98;;
53654;SDS011;39558;52.028;8.536;2023-06-14T06:15:08;3.33;;;1.17;;
53654;SDS011;39558;52.028;8.536;2023-06-14T06:17:36;2.45;;;1.27;;
53654;SDS011;39558;52.028;8.536;2023-06-14T06:20:03;2.95;;;1.20;;
53654;SDS011;39558;52.028;8.536;2023-06-14T06:22:30;3.10;;;0.80;;
53654;SDS011;39558;52.028;8.536;2023-06-14T06:24:56;2.67;;;1.20;;
53654;SDS011;39558;52.028;8.536;2023-06-14T06:27:22;2.08;;;1.00;;
53654;SDS011;39558;52.028;8.536;2023-06-14T06:29:48;2.17;;;0.98;;
53654;SDS011;39558;52.028;8.536;2023-06-14T06:32:14;2.28;;;1.08;;
53654;SDS011;39558;52.028;8.536;2023-06-14T06:34:40;1.33;;;0.80;;
53654;SDS011;39558;52.028;8.536;2023-06-14T06:37:06;2.40;;;1.10;;
53654;SDS011;39558;52.028;8.536;2023-06-14T06:39:32;2.20;;;1.08;;
53654;SDS011;39558;52.028;8.536;2023-06-14T06:41:58;3.83;;;1.10;;
53654;SDS011;39558;52.028;8.536;2023-06-14T06:44:24;3.30;;;1.10;;
53654;SDS011;39558;52.028;8.536;2023-06-14T06:46:50;2.78;;;1.20;;
53654;SDS011;39558;52.028;8.536;2023-06-14T06:49:16;2.47;;;1.10;;
53654;SDS011;39558;52.028;8.536;2023-06-14T06:51:42;2.17;;;1.17;;
53654;SDS011;39558;52.028;8.536;2023-06-14T06:54:09;2.30;;;1.20;;
53654;SDS011;39558;52.028;8.536;2023-06-14T06:56:35;4.20;;;1.13;;
53654;SDS011;39558;52.028;8.536;2023-06-14T06:59:01;3.80;;;1.27;;
53654;SDS011;39558;52.028;8.536;2023-06-14T07:01:27;2.47;;;1.20;;
53654;SDS011;39558;52.028;8.536;2023-06-14T07:03:54;3.03;;;1.30;;
53654;SDS011;39558;52.028;8.536;2023-06-14T07:06:20;4.13;;;1.40;;
53654;SDS011;39558;52.028;8.536;2023-06-14T07:08:46;6.25;;;1.55;;
53654;SDS011;39558;52.028;8.536;2023-06-14T07:11:13;3.20;;;1.30;;
53654;SDS011;39558;52.028;8.536;2023-06-14T07:13:39;2.85;;;1.30;;
53654;SDS011;39558;52.028;8.536;2023-06-14T07:16:05;3.92;;;1.10;;
53654;SDS011;39558;52.028;8.536;2023-06-14T07:18:31;3.08;;;1.25;;
53654;SDS011;39558;52.028;8.536;2023-06-14T07:20:57;2.67;;;1.35;;
53654;SDS011;39558;52.028;8.536;2023-06-14T07:23:23;4.00;;;1.67;;
53654;SDS011;39558;52.028;8.536;2023-06-14T07:25:49;3.88;;;1.23;;
53654;SDS011;39558;52.028;8.536;2023-06-14T07:28:18;4.10;;;1.40;;
53654;SDS011;39558;52.028;8.536;2023-06-14T07:30:44;6.80;;;1.27;;
53654;SDS011;39558;52.028;8.536;2023-06-14T07:33:10;3.92;;;2.22;;
53654;SDS011;39558;52.028;8.536;2023-06-14T07:35:37;3.20;;;1.35;;
53654;SDS011;39558;52.028;8.536;2023-06-14T07:38:05;4.80;;;1.77;;
53654;SDS011;39558;52.028;8.536;2023-06-14T07:40:31;6.25;;;2.00;;
53654;SDS011;39558;52.028;8.536;2023-06-14T07:42:57;4.47;;;1.88;;
53654;SDS011;39558;52.028;8.536;2023-06-14T07:45:23;4.35;;;2.00;;
53654;SDS011;39558;52.028;8.536;2023-06-14T07:47:49;3.58;;;1.85;;
53654;SDS011;39558;52.028;8.536;2023-06-14T07:50:15;7.18;;;2.25;;
53654;SDS011;39558;52.028;8.536;2023-06-14T07:52:41;6.00;;;2.08;;
53654;SDS011;39558;52.028;8.536;2023-06-14T07:55:07;5.32;;;1.90;;
53654;SDS011;39558;52.028;8.536;2023-06-14T07:57:33;4.57;;;2.10;;
53654;SDS011;39558;52.028;8.536;2023-06-14T07:59:58;4.03;;;1.75;;
53654;SDS011;39558;52.028;8.536;2023-06-14T08:02:24;5.03;;;1.90;;
53654;SDS011;39558;52.028;8.536;2023-06-14T08:04:50;5.28;;;1.90;;
53654;SDS011;39558;52.028;8.536;2023-06-14T08:07:16;4.90;;;2.30;;
53654;SDS011;39558;52.028;8.536;2023-06-14T08:09:42;4.20;;;2.00;;
53654;SDS011;39558;52.028;8.536;2023-06-14T08:12:08;5.13;;;2.00;;
53654;SDS011;39558;52.028;8.536;2023-06-14T08:14:34;3.55;;;1.92;;
53654;SDS011;39558;52.028;8.536;2023-06-14T08:17:00;8.68;;;2.03;;
53654;SDS011;39558;52.028;8.536;2023-06-14T08:19:26;5.45;;;1.70;;
53654;SDS011;39558;52.028;8.536;2023-06-14T08:21:53;5.15;;;2.15;;
53654;SDS011;39558;52.028;8.536;2023-06-14T08:24:23;5.38;;;1.77;;
53654;SDS011;39558;52.028;8.536;2023-06-14T08:26:49;2.90;;;1.67;;
53654;SDS011;39558;52.028;8.536;2023-06-14T08:29:15;5.40;;;1.92;;
53654;SDS011;39558;52.028;8.536;2023-06-14T08:31:41;2.97;;;1.50;;
53654;SDS011;39558;52.028;8.536;2023-06-14T08:34:08;3.80;;;2.00;;
53654;SDS011;39558;52.028;8.536;2023-06-14T08:36:34;5.03;;;1.55;;
53654;SDS011;39558;52.028;8.536;2023-06-14T08:39:00;2.35;;;1.40;;
53654;SDS011;39558;52.028;8.536;2023-06-14T08:41:26;3.03;;;1.70;;
53654;SDS011;39558;52.028;8.536;2023-06-14T08:43:54;6.20;;;1.63;;
53654;SDS011;39558;52.028;8.536;2023-06-14T08:46:20;4.07;;;1.40;;
53654;SDS011;39558;52.028;8.536;2023-06-14T08:48:50;1.98;;;1.20;;
53654;SDS011;39558;52.028;8.536;2023-06-14T08:51:20;2.22;;;1.20;;
53654;SDS011;39558;52.028;8.536;2023-06-14T08:53:49;6.35;;;1.35;;
53654;SDS011;39558;52.028;8.536;2023-06-14T08:56:17;1.83;;;1.17;;
53654;SDS011;39558;52.028;8.536;2023-06-14T08:58:45;2.90;;;1.30;;
53654;SDS011;39558;52.028;8.536;2023-06-14T09:01:13;2.55;;;1.27;;
53654;SDS011;39558;52.028;8.536;2023-06-14T09:03:41;2.05;;;1.10;;
53654;SDS011;39558;52.028;8.536;2023-06-14T09:06:08;2.67;;;1.48;;
53654;SDS011;39558;52.028;8.536;2023-06-14T09:08:45;3.15;;;1.40;;
53654;SDS011;39558;52.028;8.536;2023-06-14T09:11:11;3.13;;;1.38;;
53654;SDS011;39558;52.028;8.536;2023-06-14T09:13:38;13.32;;;2.55;;
53654;SDS011;39558;52.028;8.536;2023-06-14T09:16:04;4.28;;;1.92;;
53654;SDS011;39558;52.028;8.536;2023-06-14T09:18:40;6.10;;;1.95;;
53654;SDS011;39558;52.028;8.536;2023-06-14T09:21:08;5.97;;;1.92;;
53654;SDS011;39558;52.028;8.536;2023-06-14T09:23:38;3.67;;;1.63;;
53654;SDS011;39558;52.028;8.536;2023-06-14T09:26:08;2.55;;;1.60;;
53654;SDS011;39558;52.028;8.536;2023-06-14T09:28:34;2.90;;;1.42;;
53654;SDS011;39558;52.028;8.536;2023-06-14T09:31:01;4.10;;;2.15;;
53654;SDS011;39558;52.028;8.536;2023-06-14T09:33:27;3.90;;;1.58;;
53654;SDS011;39558;52.028;8.536;2023-06-14T09:35:54;3.85;;;1.42;;
53654;SDS011;39558;52.028;8.536;2023-06-14T09:38:20;3.65;;;1.90;;
53654;SDS011;39558;52.028;8.536;2023-06-14T09:40:46;2.85;;;1.20;;
53654;SDS011;39558;52.028;8.536;2023-06-14T09:43:12;3.75;;;1.85;;
53654;SDS011;39558;52.028;8.536;2023-06-14T09:45:38;2.45;;;1.20;;
53654;SDS011;39558;52.028;8.536;2023-06-14T09:48:05;3.40;;;1.40;;
53654;SDS011;39558;52.028;8.536;2023-06-14T09:50:32;2.92;;;1.58;;
53654;SDS011;39558;52.028;8.536;2023-06-14T09:53:01;3.10;;;1.20;;
53654;SDS011;39558;52.028;8.536;2023-06-14T09:55:28;4.68;;;1.30;;
53654;SDS011;39558;52.028;8.536;2023-06-14T09:57:56;2.42;;;1.02;;
53654;SDS011;39558;52.028;8.536;2023-06-14T10:00:22;5.82;;;1.75;;
53654;SDS011;39558;52.028;8.536;2023-06-14T10:02:49;2.38;;;1.20;;
53654;SDS011;39558;52.028;8.536;2023-06-14T10:05:19;4.80;;;1.10;;
53654;SDS011;39558;52.028;8.536;2023-06-14T10:08:04;3.80;;;1.50;;
53654;SDS011;39558;52.028;8.536;2023-06-14T10:10:33;5.00;;;1.30;;
53654;SDS011;39558;52.028;8.536;2023-06-14T10:12:59;4.60;;;1.10;;
53654;SDS011;39558;52.028;8.536;2023-06-14T10:15:32;5.15;;;1.38;;
53654;SDS011;39558;52.028;8.536;2023-06-14T10:18:02;5.82;;;1.63;;
53654;SDS011;39558;52.028;8.536;2023-06-14T10:20:33;4.43;;;1.52;;
53654;SDS011;39558;52.028;8.536;2023-06-14T10:23:13;3.00;;;1.15;;
53654;SDS011;39558;52.028;8.536;2023-06-14T10:25:40;1.70;;;1.10;;
53654;SDS011;39558;52.028;8.536;2023-06-14T10:28:14;2.70;;;1.40;;
53654;SDS011;39558;52.028;8.536;2023-06-14T10:33:29;3.33;;;1.45;;
53654;SDS011;39558;52.028;8.536;2023-06-14T10:38:40;2.63;;;1.58;;
53654;SDS011;39558;52.028;8.536;2023-06-14T10:41:07;3.53;;;1.52;;
53654;SDS011;39558;52.028;8.536;2023-06-14T10:43:33;2.65;;;1.70;;
53654;SDS011;39558;52.028;8.536;2023-06-14T10:46:11;3.53;;;1.55;;
53654;SDS011;39558;52.028;8.536;2023-06-14T10:48:41;4.47;;;1.50;;
53654;SDS011;39558;52.028;8.536;2023-06-14T10:51:14;6.45;;;1.50;;
53654;SDS011;39558;52.028;8.536;2023-06-14T10:53:45;3.10;;;1.10;;
53654;SDS011;39558;52.028;8.536;2023-06-14T10:56:22;4.50;;;1.48;;
53654;SDS011;39558;52.028;8.536;2023-06-14T10:58:49;3.20;;;1.40;;
53654;SDS011;39558;52.028;8.536;2023-06-14T11:01:16;3.17;;;1.15;;
53654;SDS011;39558;52.028;8.536;2023-06-14T11:03:53;6.00;;;1.50;;
53654;SDS011;39558;52.028;8.536;2023-06-14T11:06:22;3.03;;;1.00;;
53654;SDS011;39558;52.028;8.536;2023-06-14T11:11:33;3.28;;;1.23;;
53654;SDS011;39558;52.028;8.536;2023-06-14T11:14:01;2.33;;;1.20;;
53654;SDS011;39558;52.028;8.536;2023-06-14T11:16:27;3.70;;;1.08;;
53654;SDS011;39558;52.028;8.536;2023-06-14T11:18:54;5.50;;;1.25;;
53654;SDS011;39558;52.028;8.536;2023-06-14T11:21:20;3.70;;;1.40;;
53654;SDS011;39558;52.028;8.536;2023-06-14T11:23:49;2.38;;;1.13;;
53654;SDS011;39558;52.028;8.536;2023-06-14T11:26:16;2.70;;;1.40;;
53654;SDS011;39558;52.028;8.536;2023-06-14T11:28:42;4.32;;;1.38;;
53654;SDS011;39558;52.028;8.536;2023-06-14T11:31:10;3.75;;;1.35;;
53654;SDS011;39558;52.028;8.536;2023-06-14T11:33:36;3.50;;;1.63;;
53654;SDS011;39558;52.028;8.536;2023-06-14T11:36:02;3.83;;;1.30;;
53654;SDS011;39558;52.028;8.536;2023-06-14T11:38:30;5.05;;;1.33;;
53654;SDS011;39558;52.028;8.536;2023-06-14T11:40:59;4.10;;;1.38;;
53654;SDS011;39558;52.028;8.536;2023-06-14T11:43:25;4.47;;;1.60;;
53654;SDS011;39558;52.028;8.536;2023-06-14T11:45:52;2.40;;;1.23;;
53654;SDS011;39558;52.028;8.536;2023-06-14T11:48:18;3.97;;;1.73;;
53654;SDS011;39558;52.028;8.536;2023-06-14T11:50:44;3.20;;;1.27;;
53654;SDS011;39558;52.028;8.536;2023-06-14T11:53:15;9.65;;;1.92;;
53654;SDS011;39558;52.028;8.536;2023-06-14T11:55:41;6.18;;;1.30;;
53654;SDS011;39558;52.028;8.536;2023-06-14T11:58:10;2.58;;;1.33;;
53654;SDS011;39558;52.028;8.536;2023-06-14T12:00:36;3.45;;;1.35;;
53654;SDS011;39558;52.028;8.536;2023-06-14T12:03:02;3.40;;;1.42;;
53654;SDS011;39558;52.028;8.536;2023-06-14T12:05:28;2.70;;;1.20;;
53654;SDS011;39558;52.028;8.536;2023-06-14T12:07:57;6.20;;;1.33;;
53654;SDS011;39558;52.028;8.536;2023-06-14T12:10:24;5.30;;;1.30;;
53654;SDS011;39558;52.028;8.536;2023-06-14T12:12:50;3.63;;;1.25;;
53654;SDS011;39558;52.028;8.536;2023-06-14T12:15:16;2.92;;;1.25;;
53654;SDS011;39558;52.028;8.536;2023-06-14T12:17:42;2.88;;;1.38;;
53654;SDS011;39558;52.028;8.536;2023-06-14T12:20:09;6.60;;;1.40;;
53654;SDS011;39558;52.028;8.536;2023-06-14T12:22:36;3.03;;;1.15;;
53654;SDS011;39558;52.028;8.536;2023-06-14T12:25:02;3.60;;;1.60;;
53654;SDS011;39558;52.028;8.536;2023-06-14T12:27:28;7.53;;;1.58;;
53654;SDS011;39558;52.028;8.536;2023-06-14T12:30:01;3.00;;;1.20;;
53654;SDS011;39558;52.028;8.536;2023-06-14T12:32:27;4.75;;;1.58;;
53654;SDS011;39558;52.028;8.536;2023-06-14T12:34:53;3.42;;;1.42;;
53654;SDS011;39558;52.028;8.536;2023-06-14T12:37:19;4.20;;;1.55;;
53654;SDS011;39558;52.028;8.536;2023-06-14T12:39:45;5.32;;;2.60;;
53654;SDS011;39558;52.028;8.536;2023-06-14T12:42:11;5.88;;;1.77;;
53654;SDS011;39558;52.028;8.536;2023-06-14T12:44:39;3.05;;;1.38;;
53654;SDS011;39558;52.028;8.536;2023-06-14T12:47:06;4.93;;;1.40;;
53654;SDS011;39558;52.028;8.536;2023-06-14T12:49:32;4.68;;;1.70;;
53654;SDS011;39558;52.028;8.536;2023-06-14T12:51:58;2.45;;;1.30;;
53654;SDS011;39558;52.028;8.536;2023-06-14T12:54:24;3.72;;;1.40;;
53654;SDS011;39558;52.028;8.536;2023-06-14T12:56:50;3.28;;;1.02;;
53654;SDS011;39558;52.028;8.536;2023-06-14T12:59:16;4.30;;;1.67;;
53654;SDS011;39558;52.028;8.536;2023-06-14T13:01:43;4.57;;;1.65;;
53654;SDS011;39558;52.028;8.536;2023-06-14T13:04:09;2.28;;;1.25;;
53654;SDS011;39558;52.028;8.536;2023-06-14T13:06:35;3.08;;;1.60;;
53654;SDS011;39558;52.028;8.536;2023-06-14T13:09:02;3.08;;;1.52;;
53654;SDS011;39558;52.028;8.536;2023-06-14T13:11:28;3.03;;;1.30;;
53654;SDS011;39558;52.028;8.536;2023-06-14T13:13:55;4.80;;;1.48;;
53654;SDS011;39558;52.028;8.536;2023-06-14T13:16:21;3.20;;;1.42;;
53654;SDS011;39558;52.028;8.536;2023-06-14T13:18:47;4.15;;;1.35;;
53654;SDS011;39558;52.028;8.536;2023-06-14T13:21:13;3.08;;;1.30;;
53654;SDS011;39558;52.028;8.536;2023-06-14T13:23:39;2.92;;;1.70;;
53654;SDS011;39558;52.028;8.536;2023-06-14T13:26:05;3.60;;;1.65;;
53654;SDS011;39558;52.028;8.536;2023-06-14T13:28:30;3.40;;;1.58;;
53654;SDS011;39558;52.028;8.536;2023-06-14T13:30:57;7.07;;;1.40;;
53654;SDS011;39558;52.028;8.536;2023-06-14T13:33:23;3.45;;;1.20;;
53654;SDS011;39558;52.028;8.536;2023-06-14T13:35:49;4.70;;;1.20;;
53654;SDS011;39558;52.028;8.536;2023-06-14T13:38:17;3.40;;;1.30;;
53654;SDS011;39558;52.028;8.536;2023-06-14T13:40:43;3.83;;;1.15;;
53654;SDS011;39558;52.028;8.536;2023-06-14T13:43:09;4.47;;;1.40;;
53654;SDS011;39558;52.028;8.536;2023-06-14T13:45:35;5.85;;;2.08;;
53654;SDS011;39558;52.028;8.536;2023-06-14T13:48:01;8.45;;;2.08;;
53654;SDS011;39558;52.028;8.536;2023-06-14T13:50:27;14.00;;;2.28;;
53654;SDS011;39558;52.028;8.536;2023-06-14T13:52:53;7.13;;;1.88;;
53654;SDS011;39558;52.028;8.536;2023-06-14T13:55:19;7.95;;;2.55;;
53654;SDS011;39558;52.028;8.536;2023-06-14T13:57:45;8.77;;;2.08;;
53654;SDS011;39558;52.028;8.536;2023-06-14T14:00:11;10.57;;;1.95;;
53654;SDS011;39558;52.028;8.536;2023-06-14T14:02:37;10.70;;;1.80;;
53654;SDS011;39558;52.028;8.536;2023-06-14T14:05:05;7.75;;;1.83;;
53654;SDS011;39558;52.028;8.536;2023-06-14T14:07:31;5.00;;;2.00;;
53654;SDS011;39558;52.028;8.536;2023-06-14T14:09:57;9.57;;;2.13;;
53654;SDS011;39558;52.028;8.536;2023-06-14T14:12:23;6.47;;;1.67;;
53654;SDS011;39558;52.028;8.536;2023-06-14T14:14:50;3.90;;;1.48;;
53654;SDS011;39558;52.028;8.536;2023-06-14T14:17:16;4.43;;;1.70;;
53654;SDS011;39558;52.028;8.536;2023-06-14T14:19:42;6.35;;;1.95;;
53654;SDS011;39558;52.028;8.536;2023-06-14T14:22:08;8.15;;;2.15;;
53654;SDS011;39558;52.028;8.536;2023-06-14T14:24:34;6.07;;;1.77;;
53654;SDS011;39558;52.028;8.536;2023-06-14T14:27:00;4.22;;;1.85;;
53654;SDS011;39558;52.028;8.536;2023-06-14T14:29:26;6.05;;;1.85;;
53654;SDS011;39558;52.028;8.536;2023-06-14T14:31:54;4.57;;;1.88;;
53654;SDS011;39558;52.028;8.536;2023-06-14T14:34:21;6.07;;;1.58;;
53654;SDS011;39558;52.028;8.536;2023-06-14T14:36:46;6.93;;;1.80;;
53654;SDS011;39558;52.028;8.536;2023-06-14T14:39:12;4.57;;;1.80;;
53654;SDS011;39558;52.028;8.536;2023-06-14T14:41:38;4.97;;;2.15;;
53654;SDS011;39558;52.028;8.536;2023-06-14T14:44:05;3.45;;;1.75;;
53654;SDS011;39558;52.028;8.536;2023-06-14T14:46:31;8.52;;;1.85;;
53654;SDS011;39558;52.028;8.536;2023-06-14T14:48:58;10.50;;;2.13;;
53654;SDS011;39558;52.028;8.536;2023-06-14T14:51:24;6.43;;;1.73;;
53654;SDS011;39558;52.028;8.536;2023-06-14T14:53:49;5.03;;;1.75;;